sensor_id;sensor_type;location;lat;lon;timestamp;P1;durP1;ratioP1;P2;durP2;ratioP2
27489;SDS011;14925;51.026;13.752;2022-12-07T00:01:32;25.77;;;15.20;;
27489;SDS011;14925;51.026;13.752;2022-12-07T00:04:04;27.00;;;15.27;;
27489;SDS011;14925;51.026;13.752;2022-12-07T00:06:34;30.00;;;16.52;;
27489;SDS011;14925;51.026;13.752;2022-12-07T00:09:07;25.98;;;15.10;;
27489;SDS011;14925;51.026;13.752;2022-12-07T00:11:35;24.48;;;14.73;;
27489;SDS011;14925;51.026;13.752;2022-12-07T00:14:03;27.90;;;15.95;;
27489;SDS011;14925;51.026;13.752;2022-12-07T00:16:31;29.20;;;15.10;;
27489;SDS011;14925;51.026;13.752;2022-12-07T00:18:57;23.33;;;14.45;;
27489;SDS011;14925;51.026;13.752;2022-12-07T00:21:24;25.20;;;14.65;;
27489;SDS011;14925;51.026;13.752;2022-12-07T00:23:51;25.33;;;14.30;;
27489;SDS011;14925;51.026;13.752;2022-12-07T00:28:49;24.40;;;15.13;;
27489;SDS011;14925;51.026;13.752;2022-12-07T00:31:23;30.92;;;16.13;;
27489;SDS011;14925;51.026;13.752;2022-12-07T00:33:49;24.05;;;14.00;;
27489;SDS011;14925;51.026;13.752;2022-12-07T00:36:19;25.92;;;15.40;;
27489;SDS011;14925;51.026;13.752;2022-12-07T00:38:45;22.92;;;14.00;;
27489;SDS011;14925;51.026;13.752;2022-12-07T00:41:15;22.08;;;13.48;;
27489;SDS011;14925;51.026;13.752;2022-12-07T00:43:42;24.65;;;14.18;;
27489;SDS011;14925;51.026;13.752;2022-12-07T00:46:08;24.40;;;14.40;;
27489;SDS011;14925;51.026;13.752;2022-12-07T00:48:34;25.50;;;14.88;;
27489;SDS011;14925;51.026;13.752;2022-12-07T00:51:00;28.27;;;15.70;;
27489;SDS011;14925;51.026;13.752;2022-12-07T00:53:26;25.58;;;14.48;;
27489;SDS011;14925;51.026;13.752;2022-12-07T00:55:51;24.70;;;14.38;;
27489;SDS011;14925;51.026;13.752;2022-12-07T00:58:17;28.90;;;14.77;;
27489;SDS011;14925;51.026;13.752;2022-12-07T01:00:43;26.67;;;15.88;;
27489;SDS011;14925;51.026;13.752;2022-12-07T01:03:09;26.05;;;14.40;;
27489;SDS011;14925;51.026;13.752;2022-12-07T01:05:36;28.27;;;15.88;;
27489;SDS011;14925;51.026;13.752;2022-12-07T01:08:01;27.52;;;14.90;;
27489;SDS011;14925;51.026;13.752;2022-12-07T01:10:27;26.33;;;14.43;;
27489;SDS011;14925;51.026;13.752;2022-12-07T01:12:53;24.80;;;15.20;;
27489;SDS011;14925;51.026;13.752;2022-12-07T01:15:18;31.00;;;16.65;;
27489;SDS011;14925;51.026;13.752;2022-12-07T01:17:44;25.95;;;15.20;;
27489;SDS011;14925;51.026;13.752;2022-12-07T01:20:09;23.40;;;14.40;;
27489;SDS011;14925;51.026;13.752;2022-12-07T01:22:39;30.02;;;16.88;;
27489;SDS011;14925;51.026;13.752;2022-12-07T01:25:06;25.60;;;15.27;;
27489;SDS011;14925;51.026;13.752;2022-12-07T01:27:33;27.17;;;16.05;;
27489;SDS011;14925;51.026;13.752;2022-12-07T01:30:02;26.92;;;16.13;;
27489;SDS011;14925;51.026;13.752;2022-12-07T01:32:29;28.60;;;15.55;;
27489;SDS011;14925;51.026;13.752;2022-12-07T01:34:55;26.67;;;15.70;;
27489;SDS011;14925;51.026;13.752;2022-12-07T01:37:20;28.73;;;16.02;;
27489;SDS011;14925;51.026;13.752;2022-12-07T01:39:48;29.60;;;16.00;;
27489;SDS011;14925;51.026;13.752;2022-12-07T01:42:14;30.05;;;16.83;;
27489;SDS011;14925;51.026;13.752;2022-12-07T01:47:42;25.65;;;15.18;;
27489;SDS011;14925;51.026;13.752;2022-12-07T01:50:09;25.88;;;15.35;;
27489;SDS011;14925;51.026;13.752;2022-12-07T01:52:35;23.05;;;14.05;;
27489;SDS011;14925;51.026;13.752;2022-12-07T01:55:06;22.23;;;13.60;;
27489;SDS011;14925;51.026;13.752;2022-12-07T01:57:34;24.48;;;14.40;;
27489;SDS011;14925;51.026;13.752;2022-12-07T02:00:03;22.23;;;13.57;;
27489;SDS011;14925;51.026;13.752;2022-12-07T02:02:30;22.13;;;13.10;;
27489;SDS011;14925;51.026;13.752;2022-12-07T02:04:59;21.67;;;12.10;;
27489;SDS011;14925;51.026;13.752;2022-12-07T02:07:27;21.40;;;12.68;;
27489;SDS011;14925;51.026;13.752;2022-12-07T02:09:53;18.83;;;11.75;;
27489;SDS011;14925;51.026;13.752;2022-12-07T02:12:19;19.15;;;12.00;;
27489;SDS011;14925;51.026;13.752;2022-12-07T02:14:45;21.15;;;12.48;;
27489;SDS011;14925;51.026;13.752;2022-12-07T02:28:33;18.05;;;11.00;;
27489;SDS011;14925;51.026;13.752;2022-12-07T02:31:11;19.83;;;12.02;;
27489;SDS011;14925;51.026;13.752;2022-12-07T02:33:50;19.48;;;11.85;;
27489;SDS011;14925;51.026;13.752;2022-12-07T02:36:22;21.85;;;12.18;;
27489;SDS011;14925;51.026;13.752;2022-12-07T02:41:26;20.10;;;12.30;;
27489;SDS011;14925;51.026;13.752;2022-12-07T02:43:55;18.65;;;11.70;;
27489;SDS011;14925;51.026;13.752;2022-12-07T02:46:24;19.38;;;11.93;;
27489;SDS011;14925;51.026;13.752;2022-12-07T02:48:52;16.38;;;10.75;;
27489;SDS011;14925;51.026;13.752;2022-12-07T02:51:18;20.38;;;11.80;;
27489;SDS011;14925;51.026;13.752;2022-12-07T02:53:44;18.65;;;11.75;;
27489;SDS011;14925;51.026;13.752;2022-12-07T03:01:21;20.48;;;13.27;;
27489;SDS011;14925;51.026;13.752;2022-12-07T03:06:20;22.08;;;13.70;;
27489;SDS011;14925;51.026;13.752;2022-12-07T03:08:57;21.33;;;13.68;;
27489;SDS011;14925;51.026;13.752;2022-12-07T03:11:47;22.83;;;13.77;;
27489;SDS011;14925;51.026;13.752;2022-12-07T03:14:22;21.83;;;14.45;;
27489;SDS011;14925;51.026;13.752;2022-12-07T03:19:28;25.60;;;15.82;;
27489;SDS011;14925;51.026;13.752;2022-12-07T03:21:58;29.40;;;16.48;;
27489;SDS011;14925;51.026;13.752;2022-12-07T03:24:26;26.35;;;16.13;;
27489;SDS011;14925;51.026;13.752;2022-12-07T03:26:55;29.02;;;18.20;;
27489;SDS011;14925;51.026;13.752;2022-12-07T03:30:10;28.25;;;17.35;;
27489;SDS011;14925;51.026;13.752;2022-12-07T03:35:21;32.35;;;17.40;;
27489;SDS011;14925;51.026;13.752;2022-12-07T03:37:57;31.30;;;18.13;;
27489;SDS011;14925;51.026;13.752;2022-12-07T03:40:35;30.33;;;18.30;;
27489;SDS011;14925;51.026;13.752;2022-12-07T03:43:04;29.75;;;17.52;;
27489;SDS011;14925;51.026;13.752;2022-12-07T03:45:32;30.95;;;18.45;;
27489;SDS011;14925;51.026;13.752;2022-12-07T03:48:15;30.75;;;17.98;;
27489;SDS011;14925;51.026;13.752;2022-12-07T03:50:52;29.90;;;17.50;;
27489;SDS011;14925;51.026;13.752;2022-12-07T03:53:22;30.38;;;18.25;;
27489;SDS011;14925;51.026;13.752;2022-12-07T03:55:51;32.75;;;18.40;;
27489;SDS011;14925;51.026;13.752;2022-12-07T03:58:18;30.20;;;18.27;;
27489;SDS011;14925;51.026;13.752;2022-12-07T04:00:46;30.35;;;17.67;;
27489;SDS011;14925;51.026;13.752;2022-12-07T04:03:11;32.80;;;18.02;;
27489;SDS011;14925;51.026;13.752;2022-12-07T04:05:37;29.25;;;16.48;;
27489;SDS011;14925;51.026;13.752;2022-12-07T04:08:03;26.23;;;16.15;;
27489;SDS011;14925;51.026;13.752;2022-12-07T04:10:29;28.83;;;18.33;;
27489;SDS011;14925;51.026;13.752;2022-12-07T04:12:54;26.05;;;15.82;;
27489;SDS011;14925;51.026;13.752;2022-12-07T04:15:20;27.67;;;16.98;;
27489;SDS011;14925;51.026;13.752;2022-12-07T04:17:45;25.45;;;15.93;;
27489;SDS011;14925;51.026;13.752;2022-12-07T04:20:11;30.13;;;16.42;;
27489;SDS011;14925;51.026;13.752;2022-12-07T04:22:37;28.45;;;16.85;;
27489;SDS011;14925;51.026;13.752;2022-12-07T04:25:02;25.63;;;15.35;;
27489;SDS011;14925;51.026;13.752;2022-12-07T04:27:28;25.80;;;15.88;;
27489;SDS011;14925;51.026;13.752;2022-12-07T04:29:53;27.00;;;15.20;;
27489;SDS011;14925;51.026;13.752;2022-12-07T04:32:20;25.63;;;15.73;;
27489;SDS011;14925;51.026;13.752;2022-12-07T04:34:46;27.52;;;15.20;;
27489;SDS011;14925;51.026;13.752;2022-12-07T04:37:11;27.73;;;14.57;;
27489;SDS011;14925;51.026;13.752;2022-12-07T04:39:37;26.60;;;14.60;;
27489;SDS011;14925;51.026;13.752;2022-12-07T04:42:02;25.38;;;15.60;;
27489;SDS011;14925;51.026;13.752;2022-12-07T04:44:28;26.88;;;15.45;;
27489;SDS011;14925;51.026;13.752;2022-12-07T04:47:11;26.88;;;15.70;;
27489;SDS011;14925;51.026;13.752;2022-12-07T04:49:36;30.80;;;17.25;;
27489;SDS011;14925;51.026;13.752;2022-12-07T04:52:02;25.15;;;15.48;;
27489;SDS011;14925;51.026;13.752;2022-12-07T04:54:27;26.63;;;15.43;;
27489;SDS011;14925;51.026;13.752;2022-12-07T04:56:53;29.52;;;16.45;;
27489;SDS011;14925;51.026;13.752;2022-12-07T04:59:18;30.25;;;16.23;;
27489;SDS011;14925;51.026;13.752;2022-12-07T05:01:43;33.58;;;16.35;;
27489;SDS011;14925;51.026;13.752;2022-12-07T05:04:09;33.67;;;17.15;;
27489;SDS011;14925;51.026;13.752;2022-12-07T05:06:35;33.05;;;17.15;;
27489;SDS011;14925;51.026;13.752;2022-12-07T05:09:00;26.90;;;14.90;;
27489;SDS011;14925;51.026;13.752;2022-12-07T05:11:26;33.72;;;17.20;;
27489;SDS011;14925;51.026;13.752;2022-12-07T05:14:05;34.75;;;18.25;;
27489;SDS011;14925;51.026;13.752;2022-12-07T05:16:33;32.50;;;16.92;;
27489;SDS011;14925;51.026;13.752;2022-12-07T05:18:59;29.10;;;15.98;;
27489;SDS011;14925;51.026;13.752;2022-12-07T05:21:24;27.75;;;15.60;;
27489;SDS011;14925;51.026;13.752;2022-12-07T05:23:50;29.00;;;15.02;;
27489;SDS011;14925;51.026;13.752;2022-12-07T05:26:15;27.15;;;14.43;;
27489;SDS011;14925;51.026;13.752;2022-12-07T05:28:40;30.85;;;15.38;;
27489;SDS011;14925;51.026;13.752;2022-12-07T05:31:06;26.98;;;14.48;;
27489;SDS011;14925;51.026;13.752;2022-12-07T05:33:31;20.10;;;12.63;;
27489;SDS011;14925;51.026;13.752;2022-12-07T05:35:57;23.00;;;12.73;;
27489;SDS011;14925;51.026;13.752;2022-12-07T05:38:22;21.00;;;12.00;;
27489;SDS011;14925;51.026;13.752;2022-12-07T05:40:48;21.23;;;11.48;;
27489;SDS011;14925;51.026;13.752;2022-12-07T05:43:13;19.83;;;10.63;;
27489;SDS011;14925;51.026;13.752;2022-12-07T05:45:39;17.92;;;9.50;;
27489;SDS011;14925;51.026;13.752;2022-12-07T05:48:04;14.88;;;8.98;;
27489;SDS011;14925;51.026;13.752;2022-12-07T05:50:30;16.90;;;8.25;;
27489;SDS011;14925;51.026;13.752;2022-12-07T05:52:55;13.93;;;8.60;;
27489;SDS011;14925;51.026;13.752;2022-12-07T05:55:20;12.85;;;8.18;;
27489;SDS011;14925;51.026;13.752;2022-12-07T05:57:46;13.57;;;7.90;;
27489;SDS011;14925;51.026;13.752;2022-12-07T06:00:30;12.18;;;7.60;;
27489;SDS011;14925;51.026;13.752;2022-12-07T06:02:55;12.65;;;7.93;;
27489;SDS011;14925;51.026;13.752;2022-12-07T06:05:20;16.40;;;7.30;;
27489;SDS011;14925;51.026;13.752;2022-12-07T06:07:46;11.27;;;7.43;;
27489;SDS011;14925;51.026;13.752;2022-12-07T06:10:11;13.43;;;7.70;;
27489;SDS011;14925;51.026;13.752;2022-12-07T06:12:37;13.10;;;7.38;;
27489;SDS011;14925;51.026;13.752;2022-12-07T06:15:04;10.48;;;7.22;;
27489;SDS011;14925;51.026;13.752;2022-12-07T06:17:31;12.43;;;7.20;;
27489;SDS011;14925;51.026;13.752;2022-12-07T06:19:56;10.50;;;6.93;;
27489;SDS011;14925;51.026;13.752;2022-12-07T06:22:22;11.20;;;7.60;;
27489;SDS011;14925;51.026;13.752;2022-12-07T06:24:47;15.40;;;7.88;;
27489;SDS011;14925;51.026;13.752;2022-12-07T06:27:12;12.98;;;7.78;;
27489;SDS011;14925;51.026;13.752;2022-12-07T06:29:38;12.90;;;6.93;;
27489;SDS011;14925;51.026;13.752;2022-12-07T06:32:03;12.88;;;7.47;;
27489;SDS011;14925;51.026;13.752;2022-12-07T06:34:29;14.45;;;7.93;;
27489;SDS011;14925;51.026;13.752;2022-12-07T06:36:55;15.77;;;8.20;;
27489;SDS011;14925;51.026;13.752;2022-12-07T06:39:21;11.90;;;7.40;;
27489;SDS011;14925;51.026;13.752;2022-12-07T06:41:48;13.55;;;7.93;;
27489;SDS011;14925;51.026;13.752;2022-12-07T06:44:14;14.85;;;7.28;;
27489;SDS011;14925;51.026;13.752;2022-12-07T06:46:39;12.43;;;7.82;;
27489;SDS011;14925;51.026;13.752;2022-12-07T06:49:05;11.60;;;7.38;;
27489;SDS011;14925;51.026;13.752;2022-12-07T06:51:31;11.27;;;6.80;;
27489;SDS011;14925;51.026;13.752;2022-12-07T06:53:57;11.15;;;7.38;;
27489;SDS011;14925;51.026;13.752;2022-12-07T06:56:22;12.05;;;8.00;;
27489;SDS011;14925;51.026;13.752;2022-12-07T06:58:48;11.18;;;7.35;;
27489;SDS011;14925;51.026;13.752;2022-12-07T07:01:15;10.75;;;7.88;;
27489;SDS011;14925;51.026;13.752;2022-12-07T07:03:42;9.05;;;6.97;;
27489;SDS011;14925;51.026;13.752;2022-12-07T07:06:08;11.75;;;7.65;;
27489;SDS011;14925;51.026;13.752;2022-12-07T07:08:37;11.85;;;7.32;;
27489;SDS011;14925;51.026;13.752;2022-12-07T07:11:03;12.93;;;8.32;;
27489;SDS011;14925;51.026;13.752;2022-12-07T07:13:28;12.57;;;8.45;;
27489;SDS011;14925;51.026;13.752;2022-12-07T07:15:54;10.45;;;7.72;;
27489;SDS011;14925;51.026;13.752;2022-12-07T07:18:20;12.20;;;7.68;;
27489;SDS011;14925;51.026;13.752;2022-12-07T07:20:45;12.68;;;8.45;;
27489;SDS011;14925;51.026;13.752;2022-12-07T07:23:10;11.23;;;7.85;;
27489;SDS011;14925;51.026;13.752;2022-12-07T07:25:36;12.20;;;8.45;;
27489;SDS011;14925;51.026;13.752;2022-12-07T07:28:01;13.93;;;8.88;;
27489;SDS011;14925;51.026;13.752;2022-12-07T07:30:27;14.32;;;9.35;;
27489;SDS011;14925;51.026;13.752;2022-12-07T07:32:57;13.40;;;8.57;;
27489;SDS011;14925;51.026;13.752;2022-12-07T07:35:26;15.18;;;9.35;;
27489;SDS011;14925;51.026;13.752;2022-12-07T07:37:52;14.50;;;9.10;;
27489;SDS011;14925;51.026;13.752;2022-12-07T07:40:17;14.25;;;9.57;;
27489;SDS011;14925;51.026;13.752;2022-12-07T07:42:43;14.38;;;9.55;;
27489;SDS011;14925;51.026;13.752;2022-12-07T07:45:08;12.07;;;8.57;;
27489;SDS011;14925;51.026;13.752;2022-12-07T07:47:36;14.82;;;9.30;;
27489;SDS011;14925;51.026;13.752;2022-12-07T07:50:02;12.48;;;8.88;;
27489;SDS011;14925;51.026;13.752;2022-12-07T07:52:27;13.23;;;9.23;;
27489;SDS011;14925;51.026;13.752;2022-12-07T07:54:53;14.88;;;9.10;;
27489;SDS011;14925;51.026;13.752;2022-12-07T07:57:18;13.48;;;8.35;;
27489;SDS011;14925;51.026;13.752;2022-12-07T07:59:43;12.57;;;9.23;;
27489;SDS011;14925;51.026;13.752;2022-12-07T08:02:12;12.30;;;8.40;;
27489;SDS011;14925;51.026;13.752;2022-12-07T08:04:39;15.05;;;10.23;;
27489;SDS011;14925;51.026;13.752;2022-12-07T08:07:05;13.93;;;10.18;;
27489;SDS011;14925;51.026;13.752;2022-12-07T08:09:30;16.08;;;10.75;;
27489;SDS011;14925;51.026;13.752;2022-12-07T08:11:55;16.77;;;11.10;;
27489;SDS011;14925;51.026;13.752;2022-12-07T08:14:21;15.85;;;11.25;;
27489;SDS011;14925;51.026;13.752;2022-12-07T08:16:46;17.73;;;11.00;;
27489;SDS011;14925;51.026;13.752;2022-12-07T08:19:11;20.08;;;12.30;;
27489;SDS011;14925;51.026;13.752;2022-12-07T08:21:37;17.05;;;11.52;;
27489;SDS011;14925;51.026;13.752;2022-12-07T08:24:02;16.33;;;11.32;;
27489;SDS011;14925;51.026;13.752;2022-12-07T08:26:28;21.38;;;12.70;;
27489;SDS011;14925;51.026;13.752;2022-12-07T08:28:53;20.52;;;11.85;;
27489;SDS011;14925;51.026;13.752;2022-12-07T08:31:19;20.35;;;12.90;;
27489;SDS011;14925;51.026;13.752;2022-12-07T08:33:45;17.70;;;11.65;;
27489;SDS011;14925;51.026;13.752;2022-12-07T08:36:11;19.17;;;12.07;;
27489;SDS011;14925;51.026;13.752;2022-12-07T08:38:38;18.30;;;11.00;;
27489;SDS011;14925;51.026;13.752;2022-12-07T08:41:04;18.33;;;11.63;;
27489;SDS011;14925;51.026;13.752;2022-12-07T08:43:30;17.13;;;12.05;;
27489;SDS011;14925;51.026;13.752;2022-12-07T08:46:10;21.05;;;12.45;;
27489;SDS011;14925;51.026;13.752;2022-12-07T08:51:20;20.90;;;11.45;;
27489;SDS011;14925;51.026;13.752;2022-12-07T08:53:46;18.80;;;10.80;;
27489;SDS011;14925;51.026;13.752;2022-12-07T08:56:12;18.70;;;11.18;;
27489;SDS011;14925;51.026;13.752;2022-12-07T08:58:37;17.40;;;10.80;;
27489;SDS011;14925;51.026;13.752;2022-12-07T09:01:03;17.25;;;10.85;;
27489;SDS011;14925;51.026;13.752;2022-12-07T09:03:29;17.00;;;10.52;;
27489;SDS011;14925;51.026;13.752;2022-12-07T09:05:55;17.88;;;10.57;;
27489;SDS011;14925;51.026;13.752;2022-12-07T09:08:21;15.70;;;10.02;;
27489;SDS011;14925;51.026;13.752;2022-12-07T09:10:47;18.30;;;9.85;;
27489;SDS011;14925;51.026;13.752;2022-12-07T09:13:13;15.38;;;10.15;;
27489;SDS011;14925;51.026;13.752;2022-12-07T09:15:38;16.50;;;10.05;;
27489;SDS011;14925;51.026;13.752;2022-12-07T09:18:03;17.05;;;10.05;;
27489;SDS011;14925;51.026;13.752;2022-12-07T09:20:29;14.55;;;9.40;;
27489;SDS011;14925;51.026;13.752;2022-12-07T09:22:54;16.30;;;9.55;;
27489;SDS011;14925;51.026;13.752;2022-12-07T09:25:20;20.88;;;9.85;;
27489;SDS011;14925;51.026;13.752;2022-12-07T09:27:45;15.88;;;10.15;;
27489;SDS011;14925;51.026;13.752;2022-12-07T09:30:10;13.52;;;8.45;;
27489;SDS011;14925;51.026;13.752;2022-12-07T09:32:36;15.52;;;9.25;;
27489;SDS011;14925;51.026;13.752;2022-12-07T09:35:02;14.48;;;8.30;;
27489;SDS011;14925;51.026;13.752;2022-12-07T09:37:27;21.98;;;8.57;;
27489;SDS011;14925;51.026;13.752;2022-12-07T09:39:53;17.35;;;8.95;;
27489;SDS011;14925;51.026;13.752;2022-12-07T09:42:34;18.83;;;8.02;;
27489;SDS011;14925;51.026;13.752;2022-12-07T09:45:02;14.95;;;8.27;;
27489;SDS011;14925;51.026;13.752;2022-12-07T09:47:30;15.50;;;8.57;;
27489;SDS011;14925;51.026;13.752;2022-12-07T09:49:59;15.48;;;8.27;;
27489;SDS011;14925;51.026;13.752;2022-12-07T09:52:29;14.63;;;8.00;;
27489;SDS011;14925;51.026;13.752;2022-12-07T09:54:55;13.57;;;7.40;;
27489;SDS011;14925;51.026;13.752;2022-12-07T09:57:23;15.15;;;7.35;;
27489;SDS011;14925;51.026;13.752;2022-12-07T09:59:55;13.80;;;6.90;;
27489;SDS011;14925;51.026;13.752;2022-12-07T10:05:07;14.23;;;6.90;;
27489;SDS011;14925;51.026;13.752;2022-12-07T10:07:38;11.57;;;6.80;;
27489;SDS011;14925;51.026;13.752;2022-12-07T10:10:04;12.93;;;6.90;;
27489;SDS011;14925;51.026;13.752;2022-12-07T10:12:51;14.55;;;7.07;;
27489;SDS011;14925;51.026;13.752;2022-12-07T10:15:22;14.38;;;7.55;;
27489;SDS011;14925;51.026;13.752;2022-12-07T10:17:51;17.15;;;7.10;;
27489;SDS011;14925;51.026;13.752;2022-12-07T10:25:40;12.98;;;6.07;;
27489;SDS011;14925;51.026;13.752;2022-12-07T10:30:32;15.65;;;6.40;;
27489;SDS011;14925;51.026;13.752;2022-12-07T10:32:58;10.98;;;6.15;;
27489;SDS011;14925;51.026;13.752;2022-12-07T10:35:25;13.05;;;6.35;;
27489;SDS011;14925;51.026;13.752;2022-12-07T10:37:51;13.60;;;6.72;;
27489;SDS011;14925;51.026;13.752;2022-12-07T10:43:03;14.68;;;6.65;;
27489;SDS011;14925;51.026;13.752;2022-12-07T10:45:31;14.68;;;7.03;;
27489;SDS011;14925;51.026;13.752;2022-12-07T10:48:08;13.98;;;7.22;;
27489;SDS011;14925;51.026;13.752;2022-12-07T10:53:16;14.65;;;6.85;;
27489;SDS011;14925;51.026;13.752;2022-12-07T11:01:42;16.88;;;6.60;;
27489;SDS011;14925;51.026;13.752;2022-12-07T11:04:18;11.80;;;6.57;;
27489;SDS011;14925;51.026;13.752;2022-12-07T11:07:06;10.63;;;6.30;;
27489;SDS011;14925;51.026;13.752;2022-12-07T11:12:50;13.88;;;6.82;;
27489;SDS011;14925;51.026;13.752;2022-12-07T11:15:33;13.23;;;6.68;;
27489;SDS011;14925;51.026;13.752;2022-12-07T11:23:21;14.68;;;7.13;;
27489;SDS011;14925;51.026;13.752;2022-12-07T11:36:54;16.08;;;7.47;;
27489;SDS011;14925;51.026;13.752;2022-12-07T11:41:50;16.52;;;8.43;;
27489;SDS011;14925;51.026;13.752;2022-12-07T12:01:48;19.10;;;9.90;;
27489;SDS011;14925;51.026;13.752;2022-12-07T12:06:30;16.13;;;9.30;;
27489;SDS011;14925;51.026;13.752;2022-12-07T12:09:06;18.98;;;10.50;;
27489;SDS011;14925;51.026;13.752;2022-12-07T12:14:29;20.45;;;9.80;;
27489;SDS011;14925;51.026;13.752;2022-12-07T12:19:41;13.95;;;8.60;;
27489;SDS011;14925;51.026;13.752;2022-12-07T12:22:18;13.55;;;7.38;;
27489;SDS011;14925;51.026;13.752;2022-12-07T12:24:47;16.75;;;9.07;;
27489;SDS011;14925;51.026;13.752;2022-12-07T12:27:26;15.40;;;8.07;;
27489;SDS011;14925;51.026;13.752;2022-12-07T12:29:55;14.25;;;7.32;;
27489;SDS011;14925;51.026;13.752;2022-12-07T12:32:37;14.57;;;7.22;;
27489;SDS011;14925;51.026;13.752;2022-12-07T12:35:21;12.13;;;6.25;;
27489;SDS011;14925;51.026;13.752;2022-12-07T12:37:52;11.68;;;5.30;;
27489;SDS011;14925;51.026;13.752;2022-12-07T12:42:56;13.00;;;6.05;;
27489;SDS011;14925;51.026;13.752;2022-12-07T12:45:29;14.02;;;5.68;;
27489;SDS011;14925;51.026;13.752;2022-12-07T12:48:02;11.27;;;5.13;;
27489;SDS011;14925;51.026;13.752;2022-12-07T12:54:04;8.43;;;3.40;;
27489;SDS011;14925;51.026;13.752;2022-12-07T12:56:42;8.85;;;3.72;;
27489;SDS011;14925;51.026;13.752;2022-12-07T13:01:46;10.73;;;4.13;;
27489;SDS011;14925;51.026;13.752;2022-12-07T13:04:37;10.25;;;5.20;;
27489;SDS011;14925;51.026;13.752;2022-12-07T13:15:50;16.40;;;8.02;;
27489;SDS011;14925;51.026;13.752;2022-12-07T13:23:31;13.80;;;7.22;;
27489;SDS011;14925;51.026;13.752;2022-12-07T13:26:12;13.30;;;6.68;;
27489;SDS011;14925;51.026;13.752;2022-12-07T13:28:46;15.40;;;8.55;;
27489;SDS011;14925;51.026;13.752;2022-12-07T13:31:14;14.27;;;8.73;;
27489;SDS011;14925;51.026;13.752;2022-12-07T13:33:42;19.08;;;9.10;;
27489;SDS011;14925;51.026;13.752;2022-12-07T13:36:33;18.40;;;7.75;;
27489;SDS011;14925;51.026;13.752;2022-12-07T13:39:10;13.23;;;6.13;;
27489;SDS011;14925;51.026;13.752;2022-12-07T13:41:42;14.52;;;5.97;;
27489;SDS011;14925;51.026;13.752;2022-12-07T13:44:09;9.48;;;5.35;;
27489;SDS011;14925;51.026;13.752;2022-12-07T13:46:43;10.95;;;5.38;;
27489;SDS011;14925;51.026;13.752;2022-12-07T13:49:20;9.30;;;5.68;;
27489;SDS011;14925;51.026;13.752;2022-12-07T13:51:53;12.25;;;7.25;;
27489;SDS011;14925;51.026;13.752;2022-12-07T13:54:20;15.38;;;7.53;;
27489;SDS011;14925;51.026;13.752;2022-12-07T13:56:50;15.60;;;6.90;;
27489;SDS011;14925;51.026;13.752;2022-12-07T13:59:17;13.95;;;7.55;;
27489;SDS011;14925;51.026;13.752;2022-12-07T14:01:45;13.52;;;7.05;;
27489;SDS011;14925;51.026;13.752;2022-12-07T14:06:57;18.55;;;9.77;;
27489;SDS011;14925;51.026;13.752;2022-12-07T14:09:23;19.13;;;10.30;;
27489;SDS011;14925;51.026;13.752;2022-12-07T14:11:51;19.05;;;9.65;;
27489;SDS011;14925;51.026;13.752;2022-12-07T14:14:30;22.05;;;11.10;;
27489;SDS011;14925;51.026;13.752;2022-12-07T14:17:01;19.05;;;10.68;;
27489;SDS011;14925;51.026;13.752;2022-12-07T14:19:45;23.95;;;10.68;;
27489;SDS011;14925;51.026;13.752;2022-12-07T14:24:58;19.92;;;10.43;;
27489;SDS011;14925;51.026;13.752;2022-12-07T14:27:39;19.60;;;9.90;;
27489;SDS011;14925;51.026;13.752;2022-12-07T14:30:15;23.38;;;12.02;;
27489;SDS011;14925;51.026;13.752;2022-12-07T14:32:41;20.58;;;10.95;;
27489;SDS011;14925;51.026;13.752;2022-12-07T14:35:11;26.77;;;11.45;;
27489;SDS011;14925;51.026;13.752;2022-12-07T14:37:38;28.73;;;12.95;;
27489;SDS011;14925;51.026;13.752;2022-12-07T14:40:05;20.38;;;10.82;;
27489;SDS011;14925;51.026;13.752;2022-12-07T14:42:31;23.88;;;10.73;;
27489;SDS011;14925;51.026;13.752;2022-12-07T14:44:58;20.65;;;10.27;;
27489;SDS011;14925;51.026;13.752;2022-12-07T14:47:26;20.20;;;10.50;;
27489;SDS011;14925;51.026;13.752;2022-12-07T14:49:52;21.00;;;10.00;;
27489;SDS011;14925;51.026;13.752;2022-12-07T14:52:21;23.60;;;10.50;;
27489;SDS011;14925;51.026;13.752;2022-12-07T14:54:49;14.65;;;8.63;;
27489;SDS011;14925;51.026;13.752;2022-12-07T14:57:15;17.13;;;7.65;;
27489;SDS011;14925;51.026;13.752;2022-12-07T14:59:40;15.48;;;7.53;;
27489;SDS011;14925;51.026;13.752;2022-12-07T15:02:06;18.60;;;8.00;;
27489;SDS011;14925;51.026;13.752;2022-12-07T15:04:32;15.52;;;7.22;;
27489;SDS011;14925;51.026;13.752;2022-12-07T15:06:58;12.52;;;6.65;;
27489;SDS011;14925;51.026;13.752;2022-12-07T15:09:25;13.73;;;5.78;;
27489;SDS011;14925;51.026;13.752;2022-12-07T15:11:50;16.83;;;6.90;;
27489;SDS011;14925;51.026;13.752;2022-12-07T15:14:16;10.25;;;5.03;;
27489;SDS011;14925;51.026;13.752;2022-12-07T15:16:42;11.48;;;5.07;;
27489;SDS011;14925;51.026;13.752;2022-12-07T15:19:15;11.05;;;5.20;;
27489;SDS011;14925;51.026;13.752;2022-12-07T15:21:42;9.57;;;3.92;;
27489;SDS011;14925;51.026;13.752;2022-12-07T15:24:09;10.20;;;4.57;;
27489;SDS011;14925;51.026;13.752;2022-12-07T15:26:35;12.48;;;5.60;;
27489;SDS011;14925;51.026;13.752;2022-12-07T15:29:01;9.18;;;4.68;;
27489;SDS011;14925;51.026;13.752;2022-12-07T15:31:26;9.85;;;4.60;;
27489;SDS011;14925;51.026;13.752;2022-12-07T15:33:51;14.75;;;4.50;;
27489;SDS011;14925;51.026;13.752;2022-12-07T15:36:21;11.95;;;3.83;;
27489;SDS011;14925;51.026;13.752;2022-12-07T15:38:49;11.43;;;4.00;;
27489;SDS011;14925;51.026;13.752;2022-12-07T15:41:14;9.48;;;4.07;;
27489;SDS011;14925;51.026;13.752;2022-12-07T15:43:40;11.23;;;3.67;;
27489;SDS011;14925;51.026;13.752;2022-12-07T15:46:28;8.43;;;3.55;;
27489;SDS011;14925;51.026;13.752;2022-12-07T15:48:57;8.98;;;3.40;;
27489;SDS011;14925;51.026;13.752;2022-12-07T15:51:22;10.02;;;3.80;;
27489;SDS011;14925;51.026;13.752;2022-12-07T15:53:48;10.32;;;3.20;;
27489;SDS011;14925;51.026;13.752;2022-12-07T15:56:13;7.57;;;3.05;;
27489;SDS011;14925;51.026;13.752;2022-12-07T15:58:39;8.00;;;3.55;;
27489;SDS011;14925;51.026;13.752;2022-12-07T16:01:14;6.70;;;3.30;;
27489;SDS011;14925;51.026;13.752;2022-12-07T16:03:40;11.93;;;3.67;;
27489;SDS011;14925;51.026;13.752;2022-12-07T16:06:08;10.63;;;3.67;;
27489;SDS011;14925;51.026;13.752;2022-12-07T16:08:34;10.18;;;4.10;;
27489;SDS011;14925;51.026;13.752;2022-12-07T16:11:00;8.60;;;3.38;;
27489;SDS011;14925;51.026;13.752;2022-12-07T16:13:31;10.07;;;3.53;;
27489;SDS011;14925;51.026;13.752;2022-12-07T16:15:57;9.10;;;4.00;;
27489;SDS011;14925;51.026;13.752;2022-12-07T16:18:22;9.38;;;3.53;;
27489;SDS011;14925;51.026;13.752;2022-12-07T16:20:48;9.48;;;3.58;;
27489;SDS011;14925;51.026;13.752;2022-12-07T16:23:14;6.82;;;3.70;;
27489;SDS011;14925;51.026;13.752;2022-12-07T16:25:40;9.68;;;4.13;;
27489;SDS011;14925;51.026;13.752;2022-12-07T16:28:06;9.82;;;3.83;;
27489;SDS011;14925;51.026;13.752;2022-12-07T16:30:31;11.18;;;4.40;;
27489;SDS011;14925;51.026;13.752;2022-12-07T16:32:57;16.52;;;5.03;;
27489;SDS011;14925;51.026;13.752;2022-12-07T16:35:22;10.65;;;4.85;;